EGXW/WTN METAR and TAF weather

Enter ICAO airport designator
Station Type Date Time Source
EGXW METAR 2019/08/24 19:50 UTC NOAA

EGXW 241950Z 10006KT CAVOK 20/14 Q1017 RMK BLU


Station Type Date Time Source
EGXW Decoded METAR 2019/08/24 19:50 UTC NOAA

Station name not available
Aug 24, 2019 - 03:50 PM EDT / 2019.08.24 1950 UTC
Wind: from the E (100 degrees) at 7 MPH (6 KT):0
Visibility: greater than 7 mile(s):0
Temperature: 68 F (20 C)
Dew Point: 57 F (14 C)
Relative Humidity: 68%
Pressure (altimeter): 30.03 in. Hg (1017 hPa)
ob: EGXW 241950Z 10006KT CAVOK 20/14 Q1017 RMK BLU
cycle: 20

Station Type Date Time Source
EGXW TAF 2019/08/24 18:39 UTC NOAA

TAF EGXW 241617Z 2418/2512 16007KT CAVOK PROB30
TEMPO 2504/2507 7000 BR

Example: see airport list